Time;durP1;ratioP1;P1;durP2;ratioP2;P2;SDS_P1;SDS_P2;PMS_P1;PMS_P2;Temp;Humidity;BMP_temperature;BMP_pressure;BME280_temperature;BME280_humidity;BME280_pressure;Samples;Min_cycle;Max_cycle;Signal;HPM_P1;HPM_P2
2024/02/18 00:01:35;;;;;;;8.90;3.42;;;;;;;;;;4980981;28;20038;-80
2024/02/18 00:04:00;;;;;;;6.95;3.38;;;;;;;;;;4994189;28;20028;-81
2024/02/18 00:06:27;;;;;;;5.97;3.25;;;;;;;;;;4981719;28;20488;-79
2024/02/18 00:08:52;;;;;;;6.97;3.35;;;;;;;;;;4965018;28;20050;-81
2024/02/18 00:11:20;;;;;;;9.15;3.20;;;;;;;;;;4985167;28;20429;-81
2024/02/18 00:13:45;;;;;;;8.07;3.13;;;;;;;;;;4986030;28;20036;-81
2024/02/18 00:16:11;;;;;;;7.68;3.00;;;;;;;;;;4983786;28;20383;-80
2024/02/18 00:18:36;;;;;;;10.25;3.17;;;;;;;;;;4972505;28;20089;-80
2024/02/18 00:21:02;;;;;;;7.72;3.03;;;;;;;;;;4989713;28;20054;-81
2024/02/18 00:23:28;;;;;;;6.40;2.78;;;;;;;;;;4984109;28;20030;-81
2024/02/18 00:25:54;;;;;;;5.57;2.80;;;;;;;;;;4989882;28;20092;-81
2024/02/18 00:28:20;;;;;;;6.07;2.80;;;;;;;;;;4967753;28;20070;-81
2024/02/18 00:30:49;;;;;;;7.40;3.05;;;;;;;;;;4966608;28;20218;-81
2024/02/18 00:33:17;;;;;;;8.75;2.50;;;;;;;;;;4961682;28;20058;-81
2024/02/18 00:35:42;;;;;;;7.10;2.47;;;;;;;;;;4970992;28;22066;-81
2024/02/18 00:38:08;;;;;;;10.88;2.70;;;;;;;;;;4984826;28;20590;-80
2024/02/18 00:40:33;;;;;;;10.30;2.97;;;;;;;;;;4981326;28;20034;-81
2024/02/18 00:42:59;;;;;;;7.55;2.78;;;;;;;;;;4983366;28;20771;-81
2024/02/18 00:45:24;;;;;;;5.38;2.63;;;;;;;;;;4982892;28;20551;-81
2024/02/18 00:47:49;;;;;;;7.03;3.22;;;;;;;;;;4982036;28;20035;-81
2024/02/18 00:50:15;;;;;;;9.07;3.38;;;;;;;;;;4970628;28;20034;-81
2024/02/18 00:52:40;;;;;;;9.75;3.20;;;;;;;;;;4985757;28;20027;-81
2024/02/18 00:55:06;;;;;;;9.40;2.70;;;;;;;;;;4970358;28;20423;-81
2024/02/18 00:57:32;;;;;;;8.48;2.53;;;;;;;;;;4982840;28;20078;-81
2024/02/18 00:59:57;;;;;;;9.15;2.95;;;;;;;;;;4966733;28;20023;-81
2024/02/18 01:02:23;;;;;;;7.78;2.90;;;;;;;;;;4987007;28;20038;-81
2024/02/18 01:04:48;;;;;;;5.53;2.65;;;;;;;;;;4983829;28;20451;-81
2024/02/18 01:07:14;;;;;;;8.48;3.10;;;;;;;;;;4967949;28;20026;-81
2024/02/18 01:09:39;;;;;;;10.50;3.05;;;;;;;;;;4967244;28;20035;-80
2024/02/18 01:12:05;;;;;;;7.05;2.83;;;;;;;;;;4983819;28;20096;-80
2024/02/18 01:14:30;;;;;;;9.93;2.85;;;;;;;;;;4971664;28;20073;-83
2024/02/18 01:16:57;;;;;;;7.78;3.13;;;;;;;;;;4980795;28;20121;-83
2024/02/18 01:19:23;;;;;;;6.65;3.13;;;;;;;;;;4982633;28;20019;-83
2024/02/18 01:21:48;;;;;;;9.40;3.28;;;;;;;;;;4973304;28;20089;-83
2024/02/18 01:24:14;;;;;;;8.63;2.92;;;;;;;;;;4971193;28;20030;-83
2024/02/18 01:26:39;;;;;;;6.22;3.10;;;;;;;;;;4981620;28;20559;-82
2024/02/18 01:29:04;;;;;;;6.30;2.95;;;;;;;;;;4980744;28;20037;-83
2024/02/18 01:31:30;;;;;;;6.22;2.90;;;;;;;;;;4979444;28;20041;-83
2024/02/18 01:33:55;;;;;;;9.27;3.58;;;;;;;;;;4972772;28;20026;-82
2024/02/18 01:36:21;;;;;;;7.00;2.88;;;;;;;;;;4988957;28;20408;-83
2024/02/18 01:38:46;;;;;;;9.45;3.05;;;;;;;;;;4975478;28;20027;-83
2024/02/18 01:41:11;;;;;;;9.75;3.38;;;;;;;;;;4962323;28;20423;-83
2024/02/18 01:43:37;;;;;;;8.25;3.58;;;;;;;;;;4964919;28;20547;-82
2024/02/18 01:46:02;;;;;;;9.70;3.25;;;;;;;;;;4976728;28;20128;-82
2024/02/18 01:48:29;;;;;;;8.70;3.13;;;;;;;;;;4977200;28;20164;-83
2024/02/18 01:50:55;;;;;;;10.02;3.05;;;;;;;;;;4972708;28;20038;-83
2024/02/18 01:53:21;;;;;;;5.80;2.90;;;;;;;;;;4974720;28;20038;-83
2024/02/18 01:55:48;;;;;;;7.32;3.30;;;;;;;;;;4975732;28;20110;-83
2024/02/18 01:58:13;;;;;;;8.27;3.25;;;;;;;;;;4960747;28;20109;-83
2024/02/18 02:00:39;;;;;;;9.35;3.70;;;;;;;;;;4982247;28;20437;-83
2024/02/18 02:03:06;;;;;;;6.78;3.42;;;;;;;;;;4979676;28;20033;-83
2024/02/18 02:05:33;;;;;;;10.50;3.50;;;;;;;;;;4980263;28;20062;-82
2024/02/18 02:08:01;;;;;;;9.20;3.83;;;;;;;;;;4962930;28;20029;-83
2024/02/18 02:10:26;;;;;;;9.82;4.03;;;;;;;;;;4977168;28;20092;-83
2024/02/18 02:12:52;;;;;;;10.38;3.63;;;;;;;;;;4970173;28;20442;-83
2024/02/18 02:15:17;;;;;;;7.88;3.28;;;;;;;;;;4970942;28;20125;-83
2024/02/18 02:17:43;;;;;;;11.32;3.92;;;;;;;;;;4984890;28;20034;-82
2024/02/18 02:20:11;;;;;;;9.30;3.63;;;;;;;;;;4980934;28;20085;-83
2024/02/18 02:22:37;;;;;;;7.63;3.63;;;;;;;;;;4977247;28;20037;-83
2024/02/18 02:25:04;;;;;;;5.20;3.55;;;;;;;;;;4975125;28;20026;-82
2024/02/18 02:27:36;;;;;;;7.13;3.53;;;;;;;;;;4975921;28;20031;-83
2024/02/18 02:30:05;;;;;;;8.73;3.65;;;;;;;;;;4963368;28;20109;-82
2024/02/18 02:32:31;;;;;;;9.82;3.80;;;;;;;;;;4979648;28;20385;-82
2024/02/18 02:34:58;;;;;;;6.88;3.67;;;;;;;;;;4968405;28;20064;-83
2024/02/18 02:37:24;;;;;;;11.35;3.85;;;;;;;;;;4987455;28;20068;-83
2024/02/18 02:39:50;;;;;;;6.90;3.58;;;;;;;;;;4986551;28;20026;-83
2024/02/18 02:42:16;;;;;;;9.35;3.85;;;;;;;;;;4969460;28;20034;-83
2024/02/18 02:44:41;;;;;;;10.32;3.80;;;;;;;;;;4992028;28;20030;-83
2024/02/18 02:47:06;;;;;;;7.80;3.50;;;;;;;;;;4982688;28;20082;-83
2024/02/18 02:49:32;;;;;;;7.68;3.70;;;;;;;;;;4965955;28;20030;-83
2024/02/18 02:51:57;;;;;;;9.80;3.60;;;;;;;;;;4974913;28;20088;-82
2024/02/18 02:54:23;;;;;;;7.60;3.40;;;;;;;;;;4967852;28;20419;-83
2024/02/18 02:56:48;;;;;;;6.03;3.30;;;;;;;;;;4970205;28;20142;-83
2024/02/18 02:59:13;;;;;;;8.57;3.75;;;;;;;;;;4970959;28;20031;-83
2024/02/18 03:01:39;;;;;;;6.97;3.40;;;;;;;;;;4989628;28;20029;-83
2024/02/18 03:04:04;;;;;;;6.93;3.60;;;;;;;;;;4980565;28;20065;-83
2024/02/18 03:06:30;;;;;;;7.55;3.58;;;;;;;;;;4976734;28;20092;-83
2024/02/18 03:08:55;;;;;;;7.07;3.38;;;;;;;;;;4983645;28;20441;-83
2024/02/18 03:11:21;;;;;;;7.40;2.92;;;;;;;;;;4978583;28;20038;-82
2024/02/18 03:13:46;;;;;;;7.90;2.75;;;;;;;;;;4963883;28;20034;-83
2024/02/18 03:16:11;;;;;;;7.53;3.25;;;;;;;;;;4985940;28;20034;-83
2024/02/18 03:18:37;;;;;;;7.30;3.03;;;;;;;;;;4983449;28;20026;-83
2024/02/18 03:21:02;;;;;;;7.68;3.20;;;;;;;;;;4989054;28;20026;-83
2024/02/18 03:23:28;;;;;;;5.68;2.63;;;;;;;;;;4972701;28;20519;-82
2024/02/18 03:25:54;;;;;;;7.05;2.83;;;;;;;;;;4985532;28;20415;-83
2024/02/18 03:28:20;;;;;;;6.03;2.50;;;;;;;;;;4985575;28;20110;-83
2024/02/18 03:30:50;;;;;;;6.18;2.53;;;;;;;;;;4983567;28;20453;-83
2024/02/18 03:33:17;;;;;;;7.22;2.40;;;;;;;;;;4983731;28;20038;-82
2024/02/18 03:35:42;;;;;;;6.60;2.40;;;;;;;;;;4974054;28;20026;-81
2024/02/18 03:38:07;;;;;;;6.53;2.30;;;;;;;;;;4972122;28;20056;-81
2024/02/18 03:40:33;;;;;;;6.32;2.22;;;;;;;;;;4974063;28;20030;-81
2024/02/18 03:42:58;;;;;;;6.95;2.67;;;;;;;;;;4987571;28;20480;-81
2024/02/18 03:45:23;;;;;;;7.22;2.35;;;;;;;;;;4986656;28;20532;-81
2024/02/18 03:47:49;;;;;;;6.57;2.40;;;;;;;;;;4983023;28;20041;-81
2024/02/18 03:50:14;;;;;;;6.68;2.30;;;;;;;;;;4962034;28;20096;-81
2024/02/18 03:52:43;;;;;;;8.07;2.30;;;;;;;;;;4984210;28;20031;-80
2024/02/18 03:55:12;;;;;;;5.25;2.30;;;;;;;;;;4980303;28;20110;-81
2024/02/18 03:57:39;;;;;;;6.97;2.67;;;;;;;;;;4987529;28;20026;-81
2024/02/18 04:00:10;;;;;;;7.95;2.20;;;;;;;;;;4982397;28;20030;-81
2024/02/18 04:02:39;;;;;;;5.28;2.40;;;;;;;;;;4969471;28;20045;-81
2024/02/18 04:05:09;;;;;;;6.85;2.45;;;;;;;;;;4963156;28;20112;-80
2024/02/18 04:07:35;;;;;;;6.15;2.55;;;;;;;;;;4982212;28;20477;-81
2024/02/18 04:10:02;;;;;;;9.00;2.88;;;;;;;;;;4978234;28;20484;-81
2024/02/18 04:12:27;;;;;;;9.77;3.00;;;;;;;;;;4981793;28;20026;-81
2024/02/18 04:14:53;;;;;;;7.65;2.50;;;;;;;;;;4976737;28;20045;-80
2024/02/18 04:17:18;;;;;;;7.45;2.72;;;;;;;;;;4968071;28;20069;-80
2024/02/18 04:19:43;;;;;;;8.38;3.00;;;;;;;;;;4983828;28;20019;-81
2024/02/18 04:22:09;;;;;;;5.85;2.58;;;;;;;;;;4966724;28;20033;-81
2024/02/18 04:24:34;;;;;;;8.15;2.72;;;;;;;;;;4985674;28;20042;-81
2024/02/18 04:27:00;;;;;;;10.18;2.75;;;;;;;;;;4983807;28;20555;-81
2024/02/18 04:29:27;;;;;;;8.80;2.70;;;;;;;;;;4993373;28;20034;-80
2024/02/18 04:31:52;;;;;;;7.13;2.63;;;;;;;;;;4968972;28;20034;-80
2024/02/18 04:34:17;;;;;;;6.07;2.90;;;;;;;;;;4985020;28;20084;-81
2024/02/18 04:36:46;;;;;;;8.43;2.75;;;;;;;;;;4988701;28;20107;-80
2024/02/18 04:39:12;;;;;;;6.88;2.70;;;;;;;;;;4987934;28;20025;-80
2024/02/18 04:41:37;;;;;;;8.13;2.78;;;;;;;;;;4983451;28;20152;-80
2024/02/18 04:44:03;;;;;;;6.20;2.60;;;;;;;;;;4978578;28;20030;-82
2024/02/18 04:46:28;;;;;;;7.30;2.58;;;;;;;;;;4969275;28;20029;-82
2024/02/18 04:48:56;;;;;;;9.63;2.88;;;;;;;;;;4980090;28;20517;-82
2024/02/18 04:51:22;;;;;;;10.00;3.20;;;;;;;;;;4979382;28;20030;-82
2024/02/18 04:53:47;;;;;;;7.40;2.83;;;;;;;;;;4973920;28;20117;-82
2024/02/18 04:56:13;;;;;;;5.25;3.13;;;;;;;;;;4979381;28;20105;-82
2024/02/18 04:58:38;;;;;;;7.28;2.88;;;;;;;;;;4974297;28;20038;-82
2024/02/18 05:01:04;;;;;;;6.70;2.75;;;;;;;;;;4984575;28;20033;-82
2024/02/18 05:03:29;;;;;;;7.18;3.10;;;;;;;;;;4985953;28;20029;-82
2024/02/18 05:05:54;;;;;;;7.93;3.45;;;;;;;;;;4968164;28;20030;-82
2024/02/18 05:08:20;;;;;;;6.57;2.70;;;;;;;;;;4968329;28;20447;-82
2024/02/18 05:10:45;;;;;;;9.38;2.90;;;;;;;;;;4983290;28;20389;-82
2024/02/18 05:13:10;;;;;;;5.72;2.63;;;;;;;;;;4971070;28;20538;-82
2024/02/18 05:15:36;;;;;;;7.95;3.25;;;;;;;;;;4975771;28;20139;-82
2024/02/18 05:18:01;;;;;;;6.13;2.65;;;;;;;;;;4985379;28;20022;-83
2024/02/18 05:20:27;;;;;;;7.57;2.80;;;;;;;;;;4968610;28;20026;-82
2024/02/18 05:22:52;;;;;;;9.10;3.03;;;;;;;;;;4979671;28;20471;-82
2024/02/18 05:25:17;;;;;;;8.65;3.30;;;;;;;;;;4976944;28;20030;-82
2024/02/18 05:27:43;;;;;;;7.20;2.60;;;;;;;;;;4980572;28;20058;-82
2024/02/18 05:30:08;;;;;;;7.53;2.70;;;;;;;;;;4980207;28;20027;-82
2024/02/18 05:32:34;;;;;;;9.40;2.88;;;;;;;;;;4984676;28;20543;-82
2024/02/18 05:34:59;;;;;;;7.30;2.65;;;;;;;;;;4968578;28;20030;-82
2024/02/18 05:37:25;;;;;;;5.07;2.22;;;;;;;;;;4979053;28;20503;-82
2024/02/18 05:39:50;;;;;;;7.43;2.80;;;;;;;;;;4982038;28;20078;-82
2024/02/18 05:42:16;;;;;;;9.38;3.10;;;;;;;;;;4962853;28;20562;-82
2024/02/18 05:44:42;;;;;;;7.72;2.60;;;;;;;;;;4961188;28;20031;-82
2024/02/18 05:47:08;;;;;;;8.65;2.90;;;;;;;;;;4972038;28;20049;-82
2024/02/18 05:49:33;;;;;;;9.48;2.65;;;;;;;;;;4979295;28;20026;-82
2024/02/18 05:51:59;;;;;;;8.95;2.90;;;;;;;;;;4968561;28;20034;-82
2024/02/18 05:54:24;;;;;;;6.63;2.53;;;;;;;;;;4983197;28;20042;-80
2024/02/18 05:56:50;;;;;;;6.18;2.47;;;;;;;;;;4980361;28;20480;-80
2024/02/18 05:59:15;;;;;;;5.70;2.60;;;;;;;;;;4981229;28;20026;-80
2024/02/18 06:01:42;;;;;;;5.45;2.30;;;;;;;;;;4991284;28;20392;-80
2024/02/18 06:04:08;;;;;;;6.72;2.25;;;;;;;;;;4980002;28;20108;-80
2024/02/18 06:06:33;;;;;;;7.53;2.30;;;;;;;;;;4963958;28;20031;-80
2024/02/18 06:08:59;;;;;;;7.88;2.42;;;;;;;;;;4978686;28;20033;-80
2024/02/18 06:11:24;;;;;;;7.97;2.70;;;;;;;;;;4978799;28;20105;-80
2024/02/18 06:13:50;;;;;;;6.55;2.53;;;;;;;;;;4966797;28;20117;-80
2024/02/18 06:16:17;;;;;;;10.10;2.55;;;;;;;;;;4969335;28;20077;-80
2024/02/18 06:18:43;;;;;;;8.73;2.75;;;;;;;;;;4979468;28;20038;-80
2024/02/18 06:21:08;;;;;;;7.80;3.03;;;;;;;;;;4977725;28;20444;-80
2024/02/18 06:23:34;;;;;;;8.75;2.65;;;;;;;;;;4978510;28;20062;-80
2024/02/18 06:26:02;;;;;;;7.88;2.60;;;;;;;;;;4979871;28;20835;-80
2024/02/18 06:28:32;;;;;;;8.93;2.70;;;;;;;;;;4965799;28;20034;-80
2024/02/18 06:31:00;;;;;;;6.45;2.20;;;;;;;;;;4981903;28;20687;-80
2024/02/18 06:33:25;;;;;;;9.93;2.50;;;;;;;;;;4984287;28;20057;-80
2024/02/18 06:35:50;;;;;;;6.57;2.40;;;;;;;;;;4975233;28;20477;-80
2024/02/18 06:38:16;;;;;;;5.90;2.33;;;;;;;;;;4979928;28;20030;-80
2024/02/18 06:40:41;;;;;;;10.52;2.50;;;;;;;;;;4982432;28;20416;-80
2024/02/18 06:43:07;;;;;;;9.40;2.33;;;;;;;;;;4959835;28;20388;-80
2024/02/18 06:45:32;;;;;;;8.02;2.65;;;;;;;;;;4978720;28;20113;-80
2024/02/18 06:47:57;;;;;;;6.72;2.30;;;;;;;;;;4982521;28;20030;-80
2024/02/18 06:50:23;;;;;;;6.50;2.40;;;;;;;;;;4968614;28;20456;-80
2024/02/18 06:52:49;;;;;;;6.97;2.30;;;;;;;;;;4982092;28;20108;-80
2024/02/18 06:55:14;;;;;;;7.25;2.58;;;;;;;;;;4977517;28;20448;-80
2024/02/18 06:57:43;;;;;;;6.80;2.40;;;;;;;;;;4980905;28;20034;-80
2024/02/18 07:00:09;;;;;;;7.72;2.15;;;;;;;;;;4963449;28;20035;-80
2024/02/18 07:02:34;;;;;;;14.05;2.47;;;;;;;;;;4970740;28;20038;-80
2024/02/18 07:05:00;;;;;;;9.13;2.80;;;;;;;;;;4961636;28;20057;-80
2024/02/18 07:07:25;;;;;;;7.00;2.40;;;;;;;;;;4970386;28;20034;-80
2024/02/18 07:09:51;;;;;;;5.25;1.95;;;;;;;;;;4966862;28;20880;-80
2024/02/18 07:12:16;;;;;;;4.75;2.05;;;;;;;;;;4959678;28;20033;-80
2024/02/18 07:14:42;;;;;;;6.75;2.35;;;;;;;;;;4984401;28;20022;-80
2024/02/18 07:17:07;;;;;;;6.90;2.40;;;;;;;;;;4977733;28;20503;-80
2024/02/18 07:19:33;;;;;;;8.52;2.38;;;;;;;;;;4980540;28;20026;-80
2024/02/18 07:21:58;;;;;;;11.07;2.20;;;;;;;;;;4981527;28;20050;-80
2024/02/18 07:24:23;;;;;;;6.32;2.03;;;;;;;;;;4976870;28;20025;-79
2024/02/18 07:26:49;;;;;;;7.43;2.28;;;;;;;;;;4982107;28;20034;-80
2024/02/18 07:29:14;;;;;;;6.15;2.15;;;;;;;;;;4963642;28;20027;-80
2024/02/18 07:31:40;;;;;;;6.35;2.53;;;;;;;;;;4966461;28;20038;-79
2024/02/18 07:34:06;;;;;;;5.43;2.20;;;;;;;;;;4960763;28;20026;-80
2024/02/18 07:36:33;;;;;;;11.88;2.40;;;;;;;;;;4978721;28;20514;-80
2024/02/18 07:38:58;;;;;;;7.85;2.33;;;;;;;;;;4979275;28;20028;-79
2024/02/18 07:41:25;;;;;;;6.30;2.20;;;;;;;;;;4984310;28;20034;-81
2024/02/18 07:43:50;;;;;;;7.82;2.42;;;;;;;;;;4980787;28;20034;-79
2024/02/18 07:46:16;;;;;;;5.57;2.20;;;;;;;;;;4967756;28;20046;-79
2024/02/18 07:48:41;;;;;;;7.43;2.65;;;;;;;;;;4963157;28;20085;-79
2024/02/18 07:51:06;;;;;;;7.38;2.28;;;;;;;;;;4987089;28;20026;-79
2024/02/18 07:53:32;;;;;;;5.13;2.40;;;;;;;;;;4979269;28;20396;-79
2024/02/18 07:55:57;;;;;;;6.88;2.60;;;;;;;;;;4985130;28;20091;-79
2024/02/18 07:58:23;;;;;;;7.45;2.80;;;;;;;;;;4983527;28;20022;-79
2024/02/18 08:00:48;;;;;;;8.02;2.58;;;;;;;;;;4977064;28;20053;-79
2024/02/18 08:03:13;;;;;;;7.57;2.63;;;;;;;;;;4981109;28;20472;-80
2024/02/18 08:05:41;;;;;;;7.85;2.58;;;;;;;;;;4978103;28;20473;-79
2024/02/18 08:08:07;;;;;;;8.23;3.10;;;;;;;;;;4976452;28;20041;-79
2024/02/18 08:10:32;;;;;;;6.07;3.00;;;;;;;;;;4967950;28;20026;-79
2024/02/18 08:12:58;;;;;;;6.50;3.30;;;;;;;;;;4981683;28;20495;-79
2024/02/18 08:15:23;;;;;;;7.35;3.00;;;;;;;;;;4982351;28;20075;-80
2024/02/18 08:17:48;;;;;;;7.30;3.08;;;;;;;;;;4963796;28;20053;-79
2024/02/18 08:20:14;;;;;;;8.50;3.28;;;;;;;;;;4982129;28;20030;-79
2024/02/18 08:22:39;;;;;;;7.00;3.00;;;;;;;;;;4982197;28;20472;-79
2024/02/18 08:25:05;;;;;;;4.70;2.85;;;;;;;;;;4957116;28;20397;-79
2024/02/18 08:27:30;;;;;;;7.78;2.83;;;;;;;;;;4977498;28;20134;-79
2024/02/18 08:29:56;;;;;;;7.38;2.97;;;;;;;;;;4979812;28;20033;-79
2024/02/18 08:32:21;;;;;;;8.80;3.03;;;;;;;;;;4962860;28;20018;-79
2024/02/18 08:34:47;;;;;;;6.70;3.03;;;;;;;;;;4982295;28;20041;-79
2024/02/18 08:37:12;;;;;;;6.43;2.85;;;;;;;;;;4977890;28;20488;-79
2024/02/18 08:39:39;;;;;;;7.05;3.20;;;;;;;;;;4982269;28;20030;-78
2024/02/18 08:42:04;;;;;;;6.25;3.42;;;;;;;;;;4965010;28;20133;-79
2024/02/18 08:44:30;;;;;;;7.57;3.17;;;;;;;;;;4961348;28;20536;-79
2024/02/18 08:46:55;;;;;;;7.18;2.88;;;;;;;;;;4978405;28;20046;-79
2024/02/18 08:49:22;;;;;;;5.18;2.92;;;;;;;;;;4980917;28;20098;-79
2024/02/18 08:51:48;;;;;;;10.35;2.78;;;;;;;;;;4980094;28;20026;-79
2024/02/18 08:54:13;;;;;;;8.07;3.40;;;;;;;;;;4977807;28;20033;-79
2024/02/18 08:56:39;;;;;;;9.35;3.40;;;;;;;;;;4960686;28;20054;-79
2024/02/18 08:59:06;;;;;;;7.35;3.53;;;;;;;;;;4966384;28;20480;-79
2024/02/18 09:01:32;;;;;;;8.05;3.40;;;;;;;;;;4963902;28;20097;-79
2024/02/18 09:03:57;;;;;;;6.90;3.20;;;;;;;;;;4976989;28;20730;-79
2024/02/18 09:06:23;;;;;;;7.05;3.20;;;;;;;;;;4979525;28;20040;-80
2024/02/18 09:08:48;;;;;;;8.55;3.10;;;;;;;;;;4967992;28;20069;-79
2024/02/18 09:11:14;;;;;;;6.88;2.97;;;;;;;;;;4976352;28;20042;-79
2024/02/18 09:13:40;;;;;;;7.05;3.00;;;;;;;;;;4976224;28;20088;-79
2024/02/18 09:16:05;;;;;;;7.28;3.38;;;;;;;;;;4963035;28;20077;-79
2024/02/18 09:18:31;;;;;;;7.53;3.13;;;;;;;;;;4962962;28;20061;-80
2024/02/18 09:20:56;;;;;;;12.15;3.10;;;;;;;;;;4966379;28;20040;-80
2024/02/18 09:23:22;;;;;;;12.05;4.20;;;;;;;;;;4978739;28;20018;-80
2024/02/18 09:25:47;;;;;;;6.88;3.13;;;;;;;;;;4974904;28;20118;-80
2024/02/18 09:28:14;;;;;;;8.82;3.22;;;;;;;;;;4967217;28;20451;-79
2024/02/18 09:30:39;;;;;;;9.60;3.28;;;;;;;;;;4973906;28;20066;-80
2024/02/18 09:33:07;;;;;;;8.65;3.17;;;;;;;;;;4961537;28;20065;-80
2024/02/18 09:35:33;;;;;;;6.45;2.95;;;;;;;;;;4962206;28;20030;-80
2024/02/18 09:37:59;;;;;;;9.88;3.13;;;;;;;;;;4957580;28;20027;-80
2024/02/18 09:40:24;;;;;;;6.50;2.58;;;;;;;;;;4957688;28;20022;-80
2024/02/18 09:42:52;;;;;;;7.32;2.90;;;;;;;;;;4985969;28;20484;-80
2024/02/18 09:45:28;;;;;;;6.32;3.03;;;;;;;;;;4964307;28;20477;-80
2024/02/18 09:47:55;;;;;;;7.45;2.90;;;;;;;;;;4984459;28;20034;-80
2024/02/18 09:50:20;;;;;;;6.65;3.00;;;;;;;;;;4970986;28;20030;-80
2024/02/18 09:52:46;;;;;;;8.43;3.13;;;;;;;;;;4986062;28;20025;-80
2024/02/18 09:55:12;;;;;;;5.97;2.95;;;;;;;;;;4982086;28;20050;-80
2024/02/18 09:57:40;;;;;;;7.90;3.00;;;;;;;;;;4986209;28;20060;-80
2024/02/18 10:00:10;;;;;;;7.30;2.90;;;;;;;;;;4988922;28;20022;-80
2024/02/18 10:02:37;;;;;;;4.80;2.60;;;;;;;;;;4986518;28;20054;-80
2024/02/18 10:05:06;;;;;;;8.18;2.92;;;;;;;;;;4979628;28;20110;-80
2024/02/18 10:07:32;;;;;;;8.25;2.80;;;;;;;;;;4976988;28;20114;-80
2024/02/18 10:10:01;;;;;;;6.40;2.75;;;;;;;;;;4968401;28;20126;-80
2024/02/18 10:12:29;;;;;;;5.90;2.80;;;;;;;;;;4977917;28;20026;-80
2024/02/18 10:14:57;;;;;;;4.47;2.40;;;;;;;;;;4975138;28;20035;-81
2024/02/18 10:17:24;;;;;;;8.63;2.53;;;;;;;;;;4974620;28;20019;-80
2024/02/18 10:19:49;;;;;;;12.63;3.38;;;;;;;;;;4960540;28;20617;-80
2024/02/18 10:22:15;;;;;;;8.80;2.50;;;;;;;;;;4975645;28;20063;-80
2024/02/18 10:24:40;;;;;;;7.28;2.80;;;;;;;;;;4966007;28;20042;-80
2024/02/18 10:27:05;;;;;;;5.63;2.40;;;;;;;;;;4967425;28;20513;-80
2024/02/18 10:29:31;;;;;;;6.40;2.50;;;;;;;;;;4957564;28;20054;-80
2024/02/18 10:31:56;;;;;;;7.32;2.90;;;;;;;;;;4986185;28;20117;-80
2024/02/18 10:34:22;;;;;;;7.13;2.90;;;;;;;;;;4964061;28;20058;-82
2024/02/18 10:36:53;;;;;;;7.60;2.70;;;;;;;;;;4989677;28;20109;-82
2024/02/18 10:39:22;;;;;;;5.45;2.30;;;;;;;;;;4984889;28;20073;-82
2024/02/18 10:41:55;;;;;;;6.63;2.38;;;;;;;;;;4976443;28;20120;-82
2024/02/18 10:44:21;;;;;;;7.18;2.45;;;;;;;;;;4968136;28;20037;-81
2024/02/18 10:46:48;;;;;;;7.50;2.30;;;;;;;;;;4983951;28;20031;-82
2024/02/18 10:49:30;;;;;;;6.55;2.35;;;;;;;;;;4966048;28;20053;-82
2024/02/18 10:52:14;;;;;;;4.47;2.08;;;;;;;;;;4967327;28;20034;-82
2024/02/18 10:54:54;;;;;;;5.53;2.10;;;;;;;;;;4960080;28;20026;-82
2024/02/18 10:57:25;;;;;;;5.57;2.25;;;;;;;;;;4982617;28;20033;-82
2024/02/18 11:00:03;;;;;;;5.78;2.22;;;;;;;;;;4985617;28;20409;-82
2024/02/18 11:02:45;;;;;;;6.57;2.20;;;;;;;;;;4987478;28;20030;-82
2024/02/18 11:05:11;;;;;;;7.45;2.20;;;;;;;;;;4979182;28;20098;-81
2024/02/18 11:07:37;;;;;;;8.20;2.75;;;;;;;;;;4987337;28;20046;-82
2024/02/18 11:10:03;;;;;;;7.25;2.40;;;;;;;;;;4977870;28;20045;-82
2024/02/18 11:12:30;;;;;;;7.15;2.83;;;;;;;;;;4970844;28;20031;-82
2024/02/18 11:14:57;;;;;;;5.10;2.17;;;;;;;;;;4980924;28;20038;-83
2024/02/18 11:17:24;;;;;;;4.70;2.08;;;;;;;;;;4972111;28;20037;-82
2024/02/18 11:19:50;;;;;;;4.57;1.90;;;;;;;;;;4980139;28;20030;-84
2024/02/18 11:22:17;;;;;;;6.18;2.10;;;;;;;;;;4969431;28;20492;-82
2024/02/18 11:24:42;;;;;;;7.72;2.25;;;;;;;;;;4991698;28;20033;-83
2024/02/18 11:27:09;;;;;;;4.80;2.00;;;;;;;;;;4998081;28;20037;-82
2024/02/18 11:29:47;;;;;;;5.47;2.42;;;;;;;;;;4985207;28;20026;-81
2024/02/18 11:32:13;;;;;;;6.75;2.35;;;;;;;;;;4971541;28;20156;-84
2024/02/18 11:34:39;;;;;;;5.80;2.15;;;;;;;;;;4976649;28;20073;-82
2024/02/18 11:37:33;;;;;;;6.30;2.20;;;;;;;;;;4982392;28;20038;-83
2024/02/18 11:40:04;;;;;;;6.47;2.20;;;;;;;;;;4993439;28;20030;-82
2024/02/18 11:42:29;;;;;;;6.18;2.25;;;;;;;;;;4968805;28;20022;-82
2024/02/18 11:45:06;;;;;;;7.93;2.55;;;;;;;;;;4977718;28;20030;-82
2024/02/18 11:47:33;;;;;;;4.55;1.80;;;;;;;;;;4967915;28;20053;-83
2024/02/18 11:49:58;;;;;;;4.50;2.20;;;;;;;;;;4957075;28;20069;-83
2024/02/18 11:52:24;;;;;;;7.40;1.98;;;;;;;;;;4990403;28;20058;-82
2024/02/18 11:54:50;;;;;;;7.38;2.17;;;;;;;;;;4983373;28;20026;-82
2024/02/18 11:57:15;;;;;;;4.40;2.20;;;;;;;;;;4968648;28;20440;-83
2024/02/18 11:59:41;;;;;;;6.10;2.42;;;;;;;;;;4988545;28;20030;-83
2024/02/18 12:02:07;;;;;;;7.05;2.05;;;;;;;;;;4977842;28;20031;-82
2024/02/18 12:04:34;;;;;;;5.57;2.05;;;;;;;;;;4983573;28;20034;-82
2024/02/18 12:07:00;;;;;;;7.20;2.50;;;;;;;;;;4976615;28;20489;-83
2024/02/18 12:09:27;;;;;;;5.53;1.98;;;;;;;;;;4965134;28;20088;-82
2024/02/18 12:11:53;;;;;;;7.50;2.10;;;;;;;;;;4988391;28;20030;-82
2024/02/18 12:14:20;;;;;;;6.72;2.17;;;;;;;;;;4971560;28;20444;-83
2024/02/18 12:16:46;;;;;;;7.78;2.00;;;;;;;;;;4980962;28;20111;-83
2024/02/18 12:19:13;;;;;;;5.50;2.10;;;;;;;;;;4973503;28;20040;-83
2024/02/18 12:21:38;;;;;;;7.68;2.35;;;;;;;;;;4967353;28;20041;-83
2024/02/18 12:24:06;;;;;;;7.22;2.35;;;;;;;;;;4985484;28;20030;-83
2024/02/18 12:26:32;;;;;;;6.70;2.67;;;;;;;;;;4979522;28;20509;-82
2024/02/18 12:28:58;;;;;;;7.47;2.47;;;;;;;;;;4978141;28;20077;-82
2024/02/18 12:31:25;;;;;;;5.78;2.55;;;;;;;;;;4963634;28;20436;-82
2024/02/18 12:33:50;;;;;;;3.45;2.10;;;;;;;;;;4989292;28;20564;-82
2024/02/18 12:36:16;;;;;;;7.32;2.10;;;;;;;;;;4978579;28;20039;-82
2024/02/18 12:38:42;;;;;;;4.80;2.40;;;;;;;;;;4958795;28;20791;-82
2024/02/18 12:41:07;;;;;;;7.35;2.42;;;;;;;;;;4976132;28;20497;-82
2024/02/18 12:43:33;;;;;;;6.60;2.70;;;;;;;;;;4969074;28;20632;-82
2024/02/18 12:45:59;;;;;;;5.47;2.50;;;;;;;;;;4984387;28;20247;-83
2024/02/18 12:48:25;;;;;;;7.85;2.67;;;;;;;;;;4966787;28;20022;-83
2024/02/18 12:51:10;;;;;;;6.75;2.47;;;;;;;;;;4984195;28;20033;-83
2024/02/18 12:53:37;;;;;;;6.88;2.28;;;;;;;;;;4963823;28;20034;-82
2024/02/18 12:56:03;;;;;;;5.05;2.28;;;;;;;;;;4948948;28;20030;-80
2024/02/18 12:58:29;;;;;;;7.00;2.67;;;;;;;;;;4956163;28;20022;-80
2024/02/18 13:00:54;;;;;;;7.88;2.53;;;;;;;;;;4974008;28;20088;-80
2024/02/18 13:03:20;;;;;;;6.85;2.63;;;;;;;;;;4957381;28;20034;-80
2024/02/18 13:05:48;;;;;;;5.18;2.45;;;;;;;;;;4953217;28;20023;-80
2024/02/18 13:08:14;;;;;;;5.72;2.47;;;;;;;;;;4973571;28;20502;-80
2024/02/18 13:10:39;;;;;;;9.32;2.90;;;;;;;;;;4962695;28;20117;-79
2024/02/18 13:13:08;;;;;;;7.18;2.90;;;;;;;;;;4957179;28;20030;-80
2024/02/18 13:15:34;;;;;;;6.88;2.78;;;;;;;;;;4950800;28;20123;-80
2024/02/18 13:17:59;;;;;;;4.93;2.60;;;;;;;;;;4966968;28;20123;-80
2024/02/18 13:20:25;;;;;;;5.20;2.80;;;;;;;;;;4965436;28;20476;-80
2024/02/18 13:22:50;;;;;;;5.40;2.97;;;;;;;;;;4956021;28;20187;-80
2024/02/18 13:25:16;;;;;;;6.97;3.08;;;;;;;;;;4976966;28;20105;-80
2024/02/18 13:27:42;;;;;;;7.13;3.45;;;;;;;;;;4957225;28;20484;-80
2024/02/18 13:30:08;;;;;;;8.25;3.33;;;;;;;;;;4972600;28;20038;-80
2024/02/18 13:32:33;;;;;;;7.80;3.35;;;;;;;;;;4953443;28;20256;-79
2024/02/18 13:34:59;;;;;;;7.15;3.05;;;;;;;;;;4964610;28;20544;-80
2024/02/18 13:37:24;;;;;;;5.10;2.53;;;;;;;;;;4965823;28;20666;-80
2024/02/18 13:39:50;;;;;;;7.57;3.42;;;;;;;;;;4970194;28;20050;-80
2024/02/18 13:42:15;;;;;;;6.07;3.40;;;;;;;;;;4955925;28;20030;-80
2024/02/18 13:44:41;;;;;;;7.68;3.65;;;;;;;;;;4964269;28;20624;-80
2024/02/18 13:47:06;;;;;;;6.05;2.90;;;;;;;;;;4966284;28;20278;-80
2024/02/18 13:49:31;;;;;;;5.82;3.25;;;;;;;;;;4964959;28;20377;-80
2024/02/18 13:51:57;;;;;;;5.45;2.67;;;;;;;;;;4988033;28;20038;-79
2024/02/18 13:54:24;;;;;;;6.53;2.92;;;;;;;;;;4968344;28;20475;-80
2024/02/18 13:56:50;;;;;;;4.63;2.47;;;;;;;;;;4952188;28;20114;-80
2024/02/18 13:59:15;;;;;;;4.70;2.40;;;;;;;;;;4964303;28;20036;-80
2024/02/18 14:01:41;;;;;;;5.03;2.38;;;;;;;;;;4956775;28;20141;-80
2024/02/18 14:04:06;;;;;;;3.92;2.60;;;;;;;;;;4953603;28;20530;-83
2024/02/18 14:06:34;;;;;;;5.25;2.50;;;;;;;;;;4959790;28;20030;-81
2024/02/18 14:08:59;;;;;;;5.45;2.40;;;;;;;;;;4945627;28;20039;-80
2024/02/18 14:11:25;;;;;;;4.95;2.30;;;;;;;;;;4964075;28;20288;-80
2024/02/18 14:13:50;;;;;;;4.80;2.92;;;;;;;;;;4968309;28;20026;-82
2024/02/18 14:16:18;;;;;;;4.32;2.13;;;;;;;;;;4942694;28;20029;-82
2024/02/18 14:18:44;;;;;;;4.75;3.10;;;;;;;;;;4961681;28;20029;-80
2024/02/18 14:21:09;;;;;;;2.50;1.85;;;;;;;;;;4956125;28;20682;-80
2024/02/18 14:23:35;;;;;;;5.13;3.15;;;;;;;;;;4941921;28;20657;-80
2024/02/18 14:26:02;;;;;;;3.78;2.50;;;;;;;;;;4953714;28;20050;-80
2024/02/18 14:28:27;;;;;;;4.20;2.08;;;;;;;;;;4941103;28;20095;-81
2024/02/18 14:30:55;;;;;;;3.20;1.90;;;;;;;;;;4969406;28;20692;-80
2024/02/18 14:33:20;;;;;;;3.35;2.17;;;;;;;;;;4949899;28;20100;-81
2024/02/18 14:35:45;;;;;;;2.95;2.05;;;;;;;;;;4933406;28;20034;-81
2024/02/18 14:38:11;;;;;;;3.47;2.25;;;;;;;;;;4959310;28;20115;-81